Flight Track Log - Related Links

Times and Time Zones

All times are in EDT time to prevent confusion due to time zone crossing. See the XOJ549 flight status page for this flight to view local times or setup timezone preferences in your user account.


Time Position Orientation Groundspeed Altitude Reporting Facility
EDT Latitude Longitude Course Direction KTS MPH feet Rate Location/Type
Thu 04:40:58 PM 26.7369 -79.9503 61° Northeast 282 325 7,300  Level Miami Center
Thu 04:41:58 PM 26.7967 -79.8892 42° Northeast 287 330 10,900 2,950 Climbing Miami Center
Thu 04:42:58 PM 26.8569 -79.8069 51° Northeast 319 367 13,200 1,500 Climbing Miami Center
Thu 04:43:58 PM 26.9236 -79.7131 51° Northeast 360 414 13,900 400 Climbing Miami Center
Thu 04:44:58 PM 26.9836 -79.6236 53° Northeast 394 453 14,000 1,600 Climbing Miami Center
Thu 04:45:00 PM 27.0771 -79.4457 61° Northeast  Level FlightAware Approximate
Thu 04:45:58 PM 27.0525 -79.5133 55° Northeast 394 453 17,100  Level Miami Center
Thu 04:46:00 PM 27.1475 -79.3383 61° Northeast  Level FlightAware Approximate
Thu 04:46:58 PM 27.1192 -79.4122 53° Northeast 394 453 19,900  Level Miami Center
Thu 04:47:58 PM 27.1814 -79.3131 55° Northeast 394 453 22,600 1,550 Climbing Miami Center
Thu 04:48:58 PM 27.2436 -79.2164 54° Northeast 411 473 23,000 750 Climbing Miami Center
Thu 04:49:58 PM 27.3142 -79.1078 54° Northeast 425 489 24,100 1,650 Climbing Miami Center
Thu 04:50:58 PM 27.3933 -78.9853 54° Northeast 431 496 26,300 1,950 Climbing Miami Center
Thu 04:51:58 PM 27.4658 -78.8719 54° Northeast 442 509 28,000 1,600 Climbing Miami Center
Thu 04:52:58 PM 27.5572 -78.7728 44° Northeast 448 516 29,500 1,600 Climbing Miami Center
Thu 04:53:58 PM 27.6742 -78.7608 North 436 502 31,200 1,700 Climbing Miami Center
Thu 04:54:58 PM 27.7978 -78.7417 North 441 507 32,900 1,450 Climbing Miami Center
Thu 04:55:58 PM 27.9211 -78.7250 North 443 510 34,100 1,250 Climbing Miami Center
Thu 04:56:58 PM 28.0486 -78.7033 North 449 517 35,400 1,350 Climbing Miami Center
Thu 04:57:58 PM 28.1783 -78.6797 North 454 522 36,800 800 Climbing Miami Center
Thu 04:58:58 PM 28.3039 -78.6558 10° North 460 529 37,000 100 Climbing Miami Center
Thu 04:59:58 PM 28.4294 -78.6342 North 460 529 37,000  Level Miami Center
Thu 05:00:58 PM 28.5528 -78.6147 North 449 517 37,000  Level Miami Center
Thu 05:01:58 PM 28.6764 -78.5908 10° North 442 509 37,000 250 Level Miami Center
Thu 05:02:58 PM 28.7997 -78.5689 North 447 514 37,500 950 Climbing Miami Center
Thu 05:03:58 PM 28.9211 -78.5425 11° North 446 513 38,900 1,450 Climbing Miami Center
Thu 05:04:58 PM 29.0444 -78.5253 North 437 503 40,400 1,050 Climbing Miami Center
Thu 05:05:58 PM 29.1531 -78.4983 12° North 421 484 41,000 300 Climbing Miami Center
Thu 05:06:58 PM 29.2786 -78.4811 North 427 491 41,000  Level Miami Center
Thu 05:07:58 PM 29.4061 -78.4617 North 436 502 41,000  Level Miami Center
Thu 05:08:58 PM 29.5253 -78.4372 10° North 436 502 41,000  Level Miami Center
Thu 05:09:58 PM 29.6381 -78.4100 12° North 436 502 41,000  Level Miami Center
Thu 05:12:38 PM 29.9769 -78.3564 North 453 521 41,000  Level Jacksonville Center
Thu 05:13:39 PM 30.0994 -78.3336 North 447 514 41,000  Level Jacksonville Center
Thu 05:14:39 PM 30.2050 -78.3072 12° North 427 491 41,000  Level Jacksonville Center
Thu 05:15:38 PM 30.3314 -78.2842 North 425 489 41,000  Level Jacksonville Center
Thu 05:16:39 PM 30.4517 -78.2617 North 431 496 41,000  Level Jacksonville Center
Thu 05:17:39 PM 30.5633 -78.2369 11° North 420 483 41,000  Level Jacksonville Center
Thu 05:18:39 PM 30.6881 -78.2164 North 424 488 41,000  Level Jacksonville Center
Thu 05:19:38 PM 30.8019 -78.1936 10° North 430 495 41,000  Level Jacksonville Center
Thu 05:20:39 PM 30.9264 -78.1731 North 435 501 41,000  Level Jacksonville Center
Thu 05:21:39 PM 31.0339 -78.1458 12° North 435 501 41,000  Level Jacksonville Center
Thu 05:22:39 PM 31.1581 -78.1200 10° North 440 506 41,000  Level Jacksonville Center
Thu 05:23:39 PM 31.2825 -78.0967 North 446 513 41,000  Level Jacksonville Center
Thu 05:24:39 PM 31.4050 -78.0758 North 446 513 41,000  Level Jacksonville Center
Thu 05:25:39 PM 31.5294 -78.0547 North 446 513 41,000  Level Jacksonville Center
Thu 05:26:38 PM 31.6536 -78.0314 North 446 513 41,000  Level Jacksonville Center
Thu 05:27:39 PM 31.7781 -78.0053 10° North 446 513 41,000  Level Jacksonville Center
Thu 05:28:38 PM 31.9003 -77.9817 North 446 513 41,000  Level Jacksonville Center
Thu 05:29:39 PM 32.0225 -77.9581 North 446 513 41,000  Level Jacksonville Center
Thu 05:30:39 PM 32.1464 -77.9292 11° North 446 513 41,000  Level Jacksonville Center
Thu 05:31:39 PM 32.2686 -77.9053 North 446 513 41,000  Level Jacksonville Center
Thu 05:32:39 PM 32.3931 -77.8839 North 446 513 41,000  Level Jacksonville Center
Thu 05:33:39 PM 32.5175 -77.8622 North 446 513 41,000  Level Jacksonville Center
Thu 05:34:39 PM 32.6417 -77.8381 North 446 513 41,000  Level Jacksonville Center
Thu 05:35:39 PM 32.7639 -77.8139 North 446 513 41,000  Level Jacksonville Center
Thu 05:36:39 PM 32.8925 -77.7917 North 446 513 41,000  Level Jacksonville Center
Thu 05:37:39 PM 33.0144 -77.7650 10° North 446 513 41,000  Level Jacksonville Center
Thu 05:38:39 PM 33.1408 -77.7428 North 446 513 41,000  Level Jacksonville Center
Thu 05:41:07 PM 33.4547 -77.6775 10° North 442 509 41,000  Level Washington Center
Thu 05:42:06 PM 33.5761 -77.6531 10° North 442 509 41,000  Level Washington Center
Thu 05:43:07 PM 33.7019 -77.6286 North 447 514 41,000  Level Washington Center
Thu 05:44:05 PM 33.8233 -77.6017 10° North 447 514 41,000  Level Washington Center
Thu 05:45:05 PM 33.9467 -77.5772 North 447 514 41,000  Level Washington Center
Thu 05:46:07 PM 34.0722 -77.5525 North 447 514 41,000  Level Washington Center
Thu 05:47:07 PM 34.1936 -77.5303 North 447 514 41,000  Level Washington Center
Thu 05:48:05 PM 34.3194 -77.5006 11° North 447 514 41,000  Level Washington Center
Thu 05:49:05 PM 34.4369 -77.4453 21° North 447 514 41,000  Level Washington Center
Thu 05:50:05 PM 34.5569 -77.3825 23° Northeast 453 521 41,000  Level Washington Center
Thu 05:51:06 PM 34.6747 -77.3219 23° Northeast 453 521 41,000  Level Washington Center
Thu 05:52:07 PM 34.7944 -77.2589 23° Northeast 458 527 41,000  Level Washington Center
Thu 05:53:05 PM 34.8975 -77.2025 24° Northeast 458 527 41,000  Level Washington Center
Thu 05:54:06 PM 35.0172 -77.1392 23° Northeast 458 527 41,000  Level Washington Center
Thu 05:55:07 PM 35.1369 -77.0753 24° Northeast 468 539 41,000  Level Washington Center
Thu 05:56:07 PM 35.2567 -77.0139 23° Northeast 461 531 41,000  Level Washington Center
Thu 05:57:05 PM 35.3722 -76.9497 24° Northeast 461 531 41,000  Level Washington Center
Thu 05:58:06 PM 35.4917 -76.8881 23° Northeast 461 531 41,000  Level Washington Center
Thu 05:59:06 PM 35.6136 -76.8236 23° Northeast 461 531 41,000  Level Washington Center
Thu 06:00:05 PM 35.7414 -76.7514 25° Northeast 456 525 41,000  Level Washington Center
Thu 06:01:06 PM 35.8611 -76.6864 24° Northeast 461 531 41,000 -50 Level Washington Center
Thu 06:02:06 PM 35.9783 -76.6239 23° Northeast 461 531 40,900  Descending Washington Center
Thu 06:03:05 PM 36.1000 -76.5586 23° Northeast 461 531 41,000  Climbing Washington Center
Thu 06:04:06 PM 36.2172 -76.4956 23° Northeast 461 531 40,900  Descending Washington Center
Thu 06:05:07 PM 36.3389 -76.4300 23° Northeast 461 531 41,000 50 Climbing Washington Center
Thu 06:06:07 PM 36.4581 -76.3642 24° Northeast 461 531 41,000  Level Washington Center
Thu 06:07:05 PM 36.5775 -76.2981 24° Northeast 461 531 41,000  Level Washington Center
Thu 06:08:06 PM 36.6989 -76.2344 23° Northeast 461 531 41,000  Level Washington Center
Thu 06:09:06 PM 36.8036 -76.1703 26° Northeast 461 531 41,000  Level Washington Center
Thu 06:10:08 PM 36.9247 -76.1036 24° Northeast 461 531 41,000  Level Washington Center
Thu 06:11:05 PM 37.0503 -76.0419 21° North 468 539 41,000  Level Washington Center
Thu 06:12:06 PM 37.1672 -75.9750 25° Northeast 468 539 41,000  Level Washington Center
Thu 06:13:07 PM 37.2864 -75.9078 24° Northeast 462 532 41,000  Level Washington Center
Thu 06:14:05 PM 37.4053 -75.8403 24° Northeast 462 532 41,000  Level Washington Center
Thu 06:15:05 PM 37.5264 -75.7725 24° Northeast 462 532 41,000  Level Washington Center
Thu 06:16:07 PM 37.6456 -75.7044 24° Northeast 462 532 41,000  Level Washington Center
Thu 06:17:07 PM 37.7644 -75.6339 25° Northeast 462 532 41,000  Level Washington Center
Thu 06:18:05 PM 37.8853 -75.5681 23° Northeast 462 532 41,000  Level Washington Center
Thu 06:19:06 PM 38.0042 -75.4994 24° Northeast 462 532 41,000  Level Washington Center
Thu 06:20:07 PM 38.1231 -75.4281 25° Northeast 462 532 41,000  Level Washington Center
Thu 06:21:05 PM 38.2458 -75.3539 25° Northeast 468 539 41,000  Level Washington Center
Thu 06:22:06 PM 38.3603 -75.2714 29° Northeast 468 539 41,000  Level Washington Center
Thu 06:23:07 PM 38.4831 -75.1992 25° Northeast 468 539 41,000  Level Washington Center
Thu 06:24:07 PM 38.6017 -75.1161 29° Northeast 473 544 41,000  Level Washington Center
Thu 06:25:05 PM 38.7244 -75.0436 25° Northeast 473 544 41,000 -101 Level Washington Center
Thu 06:26:06 PM 38.8408 -74.9681 27° Northeast 473 544 40,800 -992 Descending Washington Center
Thu 06:27:06 PM 38.9592 -74.8894 27° Northeast 468 539 39,000 -2,168 Descending Washington Center
Thu 06:28:05 PM 39.0753 -74.8136 27° Northeast 468 539 36,500 -2,500 Descending Washington Center
Thu 06:29:06 PM 39.1789 -74.7133 37° Northeast 468 539 34,000 -2,407 Descending Washington Center
Thu 06:31:07 PM 39.3747 -74.5092 39° Northeast 454 522 29,200 -2,380 Descending New York Center
Thu 06:32:05 PM 39.4717 -74.4122 38° Northeast 448 516 26,900 -2,390 Descending New York Center
Thu 06:33:05 PM 39.5708 -74.3069 39° Northeast 448 516 24,500 -1,482 Descending New York Center
Thu 06:34:51 PM 39.7136 -74.1553 39° Northeast 429 494 22,800 -1,048 Descending Boston Center
Thu 06:35:51 PM 39.8217 -74.0392 40° Northeast 424 488 21,600 -1,200 Descending Boston Center
Thu 06:36:51 PM 39.9147 -73.9414 39° Northeast 424 488 20,400 -1,200 Descending Boston Center
Thu 06:37:51 PM 40.0078 -73.8458 38° Northeast 424 488 19,200 -1,200 Descending Boston Center
Thu 06:38:51 PM 40.0922 -73.7472 42° Northeast 424 488 18,000 -1,150 Descending Boston Center
Thu 06:39:51 PM 40.1850 -73.6569 37° Northeast 418 481 16,900 -500 Descending Boston Center
Thu 06:40:51 PM 40.2672 -73.5606 42° Northeast 404 465 17,000 50 Climbing Boston Center
Thu 06:41:51 PM 40.3556 -73.4722 37° Northeast 399 459 17,000  Level Boston Center
Thu 06:42:51 PM 40.4581 -73.4275 18° North 385 443 17,000  Level Boston Center
Thu 06:43:51 PM 40.5731 -73.3828 16° North 385 443 17,000 -342 Level Boston Center
Thu 06:45:29 PM 40.7333 -73.3167 17° North 341 392 16,100 -908 Descending New York TRACON
Thu 06:46:23 PM 40.8000 -73.2667 30° Northeast 328 377 14,700 -1,450 Descending New York TRACON
Thu 06:47:29 PM 40.8667 -73.1667 49° Northeast 335 386 13,200 -1,429 Descending New York TRACON
Thu 06:48:29 PM 40.9000 -73.0667 66° East 316 364 11,700 -1,700 Descending New York TRACON
Thu 06:49:29 PM 40.9833 -73.0500 North 271 312 9,800 -2,250 Descending New York TRACON
Thu 06:50:29 PM 41.0500 -73.0833 339° North 268 308 7,200 -2,550 Descending New York TRACON
Thu 06:51:29 PM 41.1000 -73.1500 315° West 259 298 4,700 -1,600 Descending New York TRACON
Thu 06:52:29 PM 41.1167 -73.2333 285° West 238 274 4,000 -350 Descending New York TRACON
Thu 06:53:29 PM 41.1333 -73.3167 285° West 233 268 4,000  Level New York TRACON
Thu 06:54:29 PM 41.1500 -73.4000 285° West 237 273 4,000  Level New York TRACON
Thu 06:55:29 PM 41.1833 -73.4667 304° West 221 254 4,000 -350 Level New York TRACON
Thu 06:56:29 PM 41.1667 -73.5333 252° West 183 211 3,300 -667 Descending New York TRACON
Thu 06:58:29 PM 41.1667 -73.6667 270° West 167 192 2,000 -433 Descending New York TRACON
Thu 06:59:29 PM 41.1500 -73.7333 252° West 167 192 2,000 -200 Level New York TRACON
Thu 07:00:29 PM 41.1167 -73.7500 201° Southwest 164 189 1,600 -650 Descending New York TRACON
Thu 07:01:29 PM 41.0833 -73.7167 143° Southeast 139 160 700 -900 Descending New York TRACON
Thu 07:03:00 PM 41.0667 -73.7000 236° Southwest  Level FlightAware Approximate

Login

Don't have an account? Register now (free) for customized features, flight alerts, and more!